createdAt,value
2022-10-11T00:00:06.743Z,70.55
2022-10-11T00:00:50.266Z,70.40
2022-10-11T00:01:37.543Z,70.44
2022-10-11T00:02:10.922Z,70.45
2022-10-11T00:02:44.186Z,70.45
2022-10-11T00:03:17.477Z,70.37
2022-10-11T00:03:50.547Z,70.54
2022-10-11T00:04:23.893Z,70.52
2022-10-11T00:04:57.310Z,70.34
2022-10-11T00:05:30.902Z,70.31
2022-10-11T00:06:06.462Z,70.33
2022-10-11T00:06:40.159Z,70.30
2022-10-11T00:07:13.461Z,70.22
2022-10-11T00:07:46.665Z,70.21
2022-10-11T00:08:20.315Z,70.13
2022-10-11T00:08:53.752Z,70.13
2022-10-11T00:09:26.832Z,70.22
2022-10-11T00:09:59.861Z,70.15
2022-10-11T00:10:35.710Z,70.37
2022-10-11T00:11:10.533Z,70.23
2022-10-11T00:11:43.765Z,70.21
2022-10-11T00:12:16.977Z,70.22
2022-10-11T00:12:52.505Z,70.29
2022-10-11T00:13:26.804Z,70.10
2022-10-11T00:14:00.003Z,70.39
2022-10-11T00:14:34.314Z,70.17
2022-10-11T00:15:09.869Z,70.28
2022-10-11T00:15:43.186Z,70.41
2022-10-11T00:16:16.334Z,70.35
2022-10-11T00:16:49.365Z,70.38
2022-10-11T00:17:22.889Z,70.53
2022-10-11T00:17:56.680Z,70.35
2022-10-11T00:18:30.083Z,70.41
2022-10-11T00:19:03.764Z,70.38
2022-10-11T00:19:37.028Z,70.31
2022-10-11T00:20:11.009Z,70.32
2022-10-11T00:20:44.348Z,70.35
2022-10-11T00:21:17.862Z,70.24
2022-10-11T00:21:51.119Z,70.30
2022-10-11T00:22:24.306Z,70.36
2022-10-11T00:22:57.603Z,70.28
2022-10-11T00:23:30.956Z,70.34
2022-10-11T00:24:04.917Z,70.30
2022-10-11T00:24:37.999Z,70.37
2022-10-11T00:25:12.789Z,70.30
2022-10-11T00:25:45.910Z,70.33
2022-10-11T00:26:19.223Z,70.18
2022-10-11T00:26:52.588Z,70.22
2022-10-11T00:27:25.980Z,70.16
2022-10-11T00:27:59.219Z,69.99
2022-10-11T00:28:33.200Z,69.99
2022-10-11T00:29:06.355Z,69.98
2022-10-11T00:29:39.556Z,70.13
2022-10-11T00:30:13.549Z,70.02
2022-10-11T00:30:46.788Z,70.04
2022-10-11T00:31:20.010Z,70.06
2022-10-11T00:31:53.150Z,70.02
2022-10-11T00:32:26.640Z,70.06
2022-10-11T00:32:59.848Z,70.03
2022-10-11T00:33:33.369Z,70.07
2022-10-11T00:34:06.889Z,69.89
2022-10-11T00:34:39.967Z,69.88
2022-10-11T00:35:13.646Z,69.82
2022-10-11T00:35:46.995Z,69.85
2022-10-11T00:36:20.263Z,69.64
2022-10-11T00:36:53.463Z,69.76
2022-10-11T00:37:26.712Z,69.89
2022-10-11T00:37:59.801Z,69.81
2022-10-11T00:38:33.182Z,69.78
2022-10-11T00:39:06.326Z,69.76
2022-10-11T00:39:39.429Z,69.84
2022-10-11T00:40:18.970Z,69.94
2022-10-11T00:40:52.377Z,69.99
2022-10-11T00:41:25.470Z,69.85
2022-10-11T00:41:58.837Z,69.95
2022-10-11T00:42:31.804Z,70.00
2022-10-11T00:43:05.337Z,69.82
2022-10-11T00:43:39.165Z,69.78
2022-10-11T00:44:25.358Z,69.72
2022-10-11T00:45:26.521Z,69.81
2022-10-11T00:46:08.198Z,69.86
2022-10-11T00:46:45.935Z,69.78
2022-10-11T00:47:22.428Z,69.75
2022-10-11T00:47:57.852Z,69.69
2022-10-11T00:48:45.116Z,69.78
2022-10-11T00:49:24.845Z,69.84
2022-10-11T00:50:01.465Z,69.85
2022-10-11T00:50:36.129Z,69.80
2022-10-11T00:51:20.647Z,69.93
2022-10-11T00:51:59.292Z,69.72
2022-10-11T00:52:40.913Z,69.87
2022-10-11T00:53:14.117Z,69.75
2022-10-11T00:53:50.143Z,69.90
2022-10-11T00:54:27.597Z,69.80
2022-10-11T00:55:07.668Z,69.98
2022-10-11T00:55:52.244Z,69.95
2022-10-11T00:56:31.555Z,69.84
2022-10-11T00:57:08.551Z,69.84
2022-10-11T00:57:44.643Z,69.95
2022-10-11T00:58:19.411Z,69.88
2022-10-11T00:58:54.640Z,69.90
2022-10-11T00:59:31.787Z,69.93
2022-10-11T01:00:08.163Z,69.93
2022-10-11T01:00:41.410Z,69.93
2022-10-11T01:01:14.822Z,70.03
2022-10-11T01:01:48.166Z,69.95
2022-10-11T01:02:23.522Z,69.97
2022-10-11T01:02:57.482Z,69.92
2022-10-11T01:03:33.190Z,69.98
2022-10-11T01:04:06.719Z,69.88
2022-10-11T01:04:40.141Z,69.90
2022-10-11T01:05:30.731Z,69.79
2022-10-11T01:06:04.669Z,69.99
2022-10-11T01:06:38.116Z,69.86
2022-10-11T01:07:11.969Z,69.83
2022-10-11T01:07:48.117Z,69.73
2022-10-11T01:08:21.323Z,69.91
2022-10-11T01:08:55.082Z,69.77
2022-10-11T01:09:28.715Z,69.78
2022-10-11T01:10:01.752Z,69.75
2022-10-11T01:10:35.364Z,69.95
2022-10-11T01:11:14.859Z,69.87
2022-10-11T01:11:50.757Z,69.88
2022-10-11T01:12:26.881Z,69.96
2022-10-11T01:13:00.014Z,69.71
2022-10-11T01:13:40.741Z,69.80
2022-10-11T01:14:29.224Z,69.97
2022-10-11T01:15:31.384Z,69.81
2022-10-11T01:16:04.668Z,69.78
2022-10-11T01:17:16.254Z,69.71
2022-10-11T01:18:08.714Z,69.90
2022-10-11T01:18:53.472Z,70.01
2022-10-11T01:19:38.416Z,70.18
2022-10-11T01:20:26.714Z,69.96
2022-10-11T01:21:13.606Z,69.95
2022-10-11T01:21:46.639Z,69.89
2022-10-11T01:22:25.465Z,70.01
2022-10-11T01:23:21.500Z,70.01
2022-10-11T01:24:23.355Z,70.06
2022-10-11T01:25:27.919Z,69.96
2022-10-11T01:26:22.425Z,69.82
2022-10-11T01:27:25.547Z,69.96
2022-10-11T01:28:19.604Z,70.03
2022-10-11T01:28:59.686Z,70.06
2022-10-11T01:30:07.831Z,70.06
2022-10-11T01:30:42.454Z,69.87
2022-10-11T01:31:49.829Z,70.04
2022-10-11T01:32:35.399Z,70.04
2022-10-11T01:33:35.384Z,70.10
2022-10-11T01:34:35.977Z,70.06
2022-10-11T01:35:19.111Z,70.12
2022-10-11T01:36:28.198Z,70.25
2022-10-11T01:37:23.102Z,70.21
2022-10-11T01:38:03.057Z,70.41
2022-10-11T01:38:46.081Z,70.29
2022-10-11T01:39:31.754Z,70.39
2022-10-11T01:40:11.697Z,70.27
2022-10-11T01:40:54.668Z,70.21
2022-10-11T01:41:31.446Z,70.35
2022-10-11T01:42:10.095Z,70.37
2022-10-11T01:42:44.416Z,70.40
2022-10-11T01:43:20.261Z,70.56
2022-10-11T01:43:59.008Z,70.68
2022-10-11T01:44:34.589Z,70.53
2022-10-11T01:45:15.821Z,70.67
2022-10-11T01:45:53.127Z,70.72
2022-10-11T01:46:27.551Z,70.83
2022-10-11T01:47:00.677Z,70.50
2022-10-11T01:47:33.873Z,70.71
2022-10-11T01:48:09.611Z,70.90
2022-10-11T01:48:57.056Z,70.82
2022-10-11T01:49:30.169Z,71.00
2022-10-11T01:50:03.757Z,71.01
2022-10-11T01:50:44.160Z,70.96
2022-10-11T01:51:21.597Z,70.85
2022-10-11T01:51:59.902Z,71.13
2022-10-11T01:52:36.362Z,70.99
2022-10-11T01:53:31.443Z,71.14
2022-10-11T01:55:07.541Z,71.06
2022-10-11T01:55:50.643Z,71.13
2022-10-11T01:56:34.161Z,70.92
2022-10-11T01:57:31.846Z,71.11
2022-10-11T01:58:15.951Z,70.82
2022-10-11T01:59:34.347Z,70.93
2022-10-11T02:00:14.630Z,70.80
2022-10-11T02:00:56.722Z,70.78
2022-10-11T02:01:32.693Z,71.02
2022-10-11T02:02:24.414Z,70.96
2022-10-11T02:03:19.156Z,71.03
2022-10-11T02:04:07.356Z,71.13
2022-10-11T02:04:58.646Z,71.00
2022-10-11T02:05:40.731Z,71.23
2022-10-11T02:06:56.518Z,71.28
2022-10-11T02:08:01.668Z,71.17
2022-10-11T02:08:39.017Z,71.10
2022-10-11T02:09:17.534Z,71.20
2022-10-11T02:10:10.947Z,71.23
2022-10-11T02:11:09.890Z,71.22
2022-10-11T02:11:44.685Z,71.18
2022-10-11T02:12:25.951Z,71.19
2022-10-11T02:13:09.898Z,71.43
2022-10-11T02:13:48.942Z,71.43
2022-10-11T02:14:31.510Z,71.41
2022-10-11T02:15:09.560Z,71.51
2022-10-11T02:15:44.875Z,71.61
2022-10-11T02:16:24.622Z,71.65
2022-10-11T02:17:04.447Z,71.79
2022-10-11T02:17:45.245Z,71.65
2022-10-11T02:18:20.633Z,71.75
2022-10-11T02:18:57.137Z,71.64
2022-10-11T02:19:37.166Z,71.87
2022-10-11T02:20:15.537Z,71.69
2022-10-11T02:20:50.657Z,71.74
2022-10-11T02:21:25.000Z,71.97
2022-10-11T02:22:03.960Z,71.66
2022-10-11T02:22:41.267Z,71.99
2022-10-11T02:23:20.673Z,71.79
2022-10-11T02:24:06.926Z,71.94
2022-10-11T02:24:44.936Z,71.94
2022-10-11T02:25:24.963Z,71.68
2022-10-11T02:25:58.222Z,71.74
2022-10-11T02:26:34.869Z,71.85
2022-10-11T02:27:10.725Z,71.84
2022-10-11T02:27:47.496Z,72.02
2022-10-11T02:28:29.242Z,71.93
2022-10-11T02:29:06.018Z,71.89
2022-10-11T02:29:44.346Z,72.04
2022-10-11T02:30:18.104Z,71.87
2022-10-11T02:30:53.840Z,71.86
2022-10-11T02:31:30.708Z,71.84
2022-10-11T02:32:04.537Z,71.93
2022-10-11T02:32:41.938Z,71.87
2022-10-11T02:33:21.750Z,71.99
2022-10-11T02:34:05.471Z,72.03
2022-10-11T02:34:45.286Z,71.82
2022-10-11T02:35:19.787Z,71.87
2022-10-11T02:36:03.314Z,71.93
2022-10-11T02:36:49.104Z,71.90
2022-10-11T02:37:36.829Z,71.87
2022-10-11T02:38:18.000Z,71.85
2022-10-11T02:38:59.310Z,71.97
2022-10-11T02:39:36.744Z,71.89
2022-10-11T02:40:31.426Z,71.67
2022-10-11T02:41:25.751Z,71.68
2022-10-11T02:42:05.432Z,71.91
2022-10-11T02:42:51.787Z,71.83
2022-10-11T02:43:38.562Z,71.64
2022-10-11T02:44:19.140Z,71.67
2022-10-11T02:45:01.044Z,71.77
2022-10-11T02:45:39.737Z,71.61
2022-10-11T02:46:15.225Z,71.62
2022-10-11T02:46:51.781Z,71.74
2022-10-11T02:47:25.095Z,71.79
2022-10-11T02:47:59.115Z,71.46
2022-10-11T02:48:33.914Z,71.71
2022-10-11T02:49:08.874Z,71.55
2022-10-11T02:49:42.169Z,71.53
2022-10-11T02:50:16.258Z,71.54
2022-10-11T02:50:49.502Z,71.51
2022-10-11T02:51:22.730Z,71.50
2022-10-11T02:51:57.464Z,71.37
2022-10-11T02:52:30.577Z,71.42
2022-10-11T02:53:04.903Z,71.38
2022-10-11T02:53:37.988Z,71.43
2022-10-11T02:54:11.300Z,71.29
2022-10-11T02:54:44.374Z,71.48
2022-10-11T02:55:17.635Z,71.29
2022-10-11T02:55:52.747Z,71.43
2022-10-11T02:56:25.914Z,71.54
2022-10-11T02:56:58.928Z,71.45
2022-10-11T02:57:32.122Z,71.43
2022-10-11T02:58:05.141Z,71.57
2022-10-11T02:58:38.280Z,71.41
2022-10-11T02:59:11.835Z,71.43
2022-10-11T02:59:45.033Z,71.35
2022-10-11T03:00:18.109Z,71.55
2022-10-11T03:00:51.120Z,71.66
2022-10-11T03:01:24.478Z,71.48
2022-10-11T03:01:57.731Z,71.42
2022-10-11T03:02:30.988Z,71.32
2022-10-11T03:03:04.291Z,71.36
2022-10-11T03:03:37.375Z,71.49
2022-10-11T03:04:10.478Z,71.31
2022-10-11T03:04:43.505Z,71.21
2022-10-11T03:05:16.649Z,71.27
2022-10-11T03:05:49.717Z,71.43
2022-10-11T03:06:22.960Z,71.47
2022-10-11T03:06:55.967Z,71.44
2022-10-11T03:07:29.146Z,71.36
2022-10-11T03:08:02.299Z,71.40
2022-10-11T03:08:35.653Z,71.44
2022-10-11T03:09:08.872Z,71.55
2022-10-11T03:09:42.111Z,71.54
2022-10-11T03:10:15.247Z,71.64
2022-10-11T03:10:48.547Z,71.64
2022-10-11T03:11:21.703Z,71.45
2022-10-11T03:11:54.933Z,71.44
2022-10-11T03:12:28.064Z,71.42
2022-10-11T03:13:01.235Z,71.32
2022-10-11T03:13:34.496Z,71.42
2022-10-11T03:14:07.661Z,71.22
2022-10-11T03:14:41.027Z,71.28
2022-10-11T03:15:14.263Z,71.33
2022-10-11T03:16:02.223Z,71.37
2022-10-11T03:16:40.282Z,71.24
2022-10-11T03:17:34.947Z,71.41
2022-10-11T03:18:06.746Z,71.40
2022-10-11T03:18:39.984Z,71.65
2022-10-11T03:19:18.337Z,71.42
2022-10-11T03:19:52.300Z,71.62
2022-10-11T03:20:26.395Z,71.56
2022-10-11T03:20:59.716Z,71.41
2022-10-11T03:21:32.967Z,71.48
2022-10-11T03:22:06.092Z,71.71
2022-10-11T03:22:39.264Z,71.59
2022-10-11T03:23:13.742Z,71.51
2022-10-11T03:23:46.856Z,71.66
2022-10-11T03:24:19.903Z,71.49
2022-10-11T03:24:53.643Z,71.44
2022-10-11T03:25:26.915Z,71.49
2022-10-11T03:26:00.242Z,71.47
2022-10-11T03:26:33.349Z,71.52
2022-10-11T03:27:06.554Z,71.46
2022-10-11T03:27:40.226Z,71.49
2022-10-11T03:28:13.472Z,71.38
2022-10-11T03:28:46.650Z,71.50
2022-10-11T03:29:19.840Z,71.44
2022-10-11T03:29:52.943Z,71.61
2022-10-11T03:30:26.515Z,71.42
2022-10-11T03:30:59.836Z,71.50
2022-10-11T03:31:33.081Z,71.24
2022-10-11T03:32:06.264Z,71.33
2022-10-11T03:32:39.545Z,71.42
2022-10-11T03:33:12.920Z,71.35
2022-10-11T03:33:46.266Z,71.29
2022-10-11T03:34:19.326Z,71.38
2022-10-11T03:34:52.569Z,71.37
2022-10-11T03:35:25.650Z,71.58
2022-10-11T03:35:58.864Z,71.34
2022-10-11T03:36:32.173Z,71.66
2022-10-11T03:37:05.462Z,71.40
2022-10-11T03:37:38.873Z,71.45
2022-10-11T03:38:14.578Z,71.45
2022-10-11T03:38:47.744Z,71.55
2022-10-11T03:39:21.324Z,71.42
2022-10-11T03:39:54.416Z,71.23
2022-10-11T03:40:27.504Z,71.11
2022-10-11T03:41:00.650Z,71.15
2022-10-11T03:41:33.726Z,71.34
2022-10-11T03:42:06.926Z,71.18
2022-10-11T03:42:40.599Z,71.04
2022-10-11T03:43:14.030Z,71.09
2022-10-11T03:43:47.237Z,71.21
2022-10-11T03:44:20.291Z,71.13
2022-10-11T03:44:53.423Z,70.90
2022-10-11T03:45:26.529Z,71.04
2022-10-11T03:45:59.545Z,70.94
2022-10-11T03:46:32.884Z,71.09
2022-10-11T03:47:06.344Z,71.16
2022-10-11T03:47:39.741Z,71.12
2022-10-11T03:48:12.859Z,71.07
2022-10-11T03:48:45.915Z,71.18
2022-10-11T03:49:19.113Z,71.39
2022-10-11T03:49:52.318Z,71.14
2022-10-11T03:50:25.543Z,70.83
2022-10-11T03:50:58.717Z,71.11
2022-10-11T03:51:32.040Z,70.92
2022-10-11T03:52:05.193Z,71.07
2022-10-11T03:52:38.337Z,71.01
2022-10-11T03:53:11.750Z,71.07
2022-10-11T03:53:45.334Z,70.91
2022-10-11T03:54:18.373Z,70.71
2022-10-11T03:54:51.506Z,70.65
2022-10-11T03:55:24.617Z,71.00
2022-10-11T03:55:57.827Z,70.85
2022-10-11T03:56:31.050Z,70.94
2022-10-11T03:57:04.311Z,70.93
2022-10-11T03:57:37.500Z,70.90
2022-10-11T03:58:10.563Z,70.86
2022-10-11T03:58:43.677Z,70.89
2022-10-11T03:59:16.865Z,70.99
2022-10-11T03:59:50.289Z,71.03
2022-10-11T04:00:23.562Z,70.88
2022-10-11T04:00:56.764Z,70.93
2022-10-11T04:01:30.867Z,71.08
2022-10-11T04:02:04.668Z,70.83
2022-10-11T04:02:39.297Z,71.00
2022-10-11T04:03:13.237Z,71.05
2022-10-11T04:03:46.376Z,70.86
2022-10-11T04:04:19.394Z,70.90
2022-10-11T04:04:52.642Z,70.83
2022-10-11T04:05:26.004Z,70.89
2022-10-11T04:05:59.236Z,70.85
2022-10-11T04:06:33.020Z,70.64
2022-10-11T04:07:06.275Z,70.82
2022-10-11T04:07:40.395Z,70.69
2022-10-11T04:08:13.487Z,70.84
2022-10-11T04:08:46.575Z,70.76
2022-10-11T04:09:19.653Z,70.71
2022-10-11T04:09:53.046Z,70.90
2022-10-11T04:10:26.260Z,70.91
2022-10-11T04:10:59.480Z,71.00
2022-10-11T04:11:33.095Z,70.87
2022-10-11T04:12:06.381Z,70.95
2022-10-11T04:12:39.774Z,70.83
2022-10-11T04:13:13.221Z,70.99
2022-10-11T04:13:46.556Z,71.02
2022-10-11T04:14:19.697Z,70.88
2022-10-11T04:14:52.797Z,71.16
2022-10-11T04:15:25.924Z,70.92
2022-10-11T04:15:59.068Z,71.14
2022-10-11T04:16:32.813Z,70.92
2022-10-11T04:17:06.086Z,71.11
2022-10-11T04:17:39.956Z,71.01
2022-10-11T04:18:13.308Z,71.15
2022-10-11T04:18:46.433Z,71.19
2022-10-11T04:19:19.752Z,71.17
2022-10-11T04:19:52.919Z,71.07
2022-10-11T04:20:26.000Z,71.15
2022-10-11T04:20:58.977Z,70.94
2022-10-11T04:21:32.367Z,70.94
2022-10-11T04:22:06.320Z,70.86
2022-10-11T04:22:39.643Z,70.64
2022-10-11T04:23:13.062Z,70.66
2022-10-11T04:23:46.079Z,70.68
2022-10-11T04:24:19.275Z,70.94
2022-10-11T04:24:52.402Z,70.97
2022-10-11T04:25:25.748Z,71.26
2022-10-11T04:25:59.756Z,71.08
2022-10-11T04:26:32.950Z,70.86
2022-10-11T04:27:06.625Z,71.13
2022-10-11T04:27:39.958Z,71.14
2022-10-11T04:28:13.302Z,71.09
2022-10-11T04:28:46.778Z,71.20
2022-10-11T04:29:20.051Z,71.22
2022-10-11T04:29:53.817Z,71.30
2022-10-11T04:30:27.645Z,71.37
2022-10-11T04:31:01.292Z,71.28
2022-10-11T04:31:34.790Z,71.45
2022-10-11T04:32:07.827Z,71.46
2022-10-11T04:32:40.880Z,71.20
2022-10-11T04:33:14.163Z,71.29
2022-10-11T04:33:47.934Z,71.40
2022-10-11T04:34:21.036Z,71.55
2022-10-11T04:34:54.141Z,71.72
2022-10-11T04:35:27.242Z,71.44
2022-10-11T04:36:00.388Z,71.49
2022-10-11T04:36:34.258Z,71.58
2022-10-11T04:37:07.352Z,71.75
2022-10-11T04:37:40.544Z,71.60
2022-10-11T04:38:13.602Z,71.65
2022-10-11T04:38:46.715Z,71.86
2022-10-11T04:39:19.876Z,71.80
2022-10-11T04:39:53.021Z,71.80
2022-10-11T04:40:26.132Z,71.92
2022-10-11T04:41:10.521Z,71.81
2022-10-11T04:41:43.634Z,71.85
2022-10-11T04:42:16.857Z,71.93
2022-10-11T04:42:50.820Z,71.89
2022-10-11T04:43:23.991Z,71.63
2022-10-11T04:43:57.415Z,71.64
2022-10-11T04:44:31.515Z,71.74
2022-10-11T04:45:05.195Z,71.82
2022-10-11T04:45:38.358Z,71.71
2022-10-11T04:46:11.960Z,71.75
2022-10-11T04:46:45.261Z,71.69
2022-10-11T04:47:18.588Z,71.61
2022-10-11T04:47:51.662Z,71.86
2022-10-11T04:48:24.806Z,72.05
2022-10-11T04:48:57.981Z,71.74
2022-10-11T04:49:31.110Z,71.96
2022-10-11T04:50:04.937Z,72.05
2022-10-11T04:50:38.316Z,72.01
2022-10-11T04:51:11.571Z,71.96
2022-10-11T04:51:44.913Z,72.07
2022-10-11T04:52:21.074Z,72.08
2022-10-11T04:52:56.560Z,72.08
2022-10-11T04:53:30.182Z,72.02
2022-10-11T04:54:03.284Z,72.28
2022-10-11T04:54:36.973Z,72.17
2022-10-11T04:55:11.174Z,72.10
2022-10-11T04:55:44.162Z,72.24
2022-10-11T04:56:18.858Z,72.45
2022-10-11T04:56:51.919Z,72.39
2022-10-11T04:57:25.025Z,72.26
2022-10-11T04:57:58.321Z,72.37
2022-10-11T04:58:32.714Z,72.33
2022-10-11T04:59:05.867Z,72.41
2022-10-11T04:59:38.989Z,72.20
2022-10-11T05:00:12.682Z,72.39
2022-10-11T05:00:45.892Z,72.49
2022-10-11T05:01:19.080Z,72.46
2022-10-11T05:01:52.329Z,72.46
2022-10-11T05:02:25.780Z,72.54
2022-10-11T05:02:59.188Z,72.66
2022-10-11T05:03:32.986Z,72.71
2022-10-11T05:04:06.221Z,72.80
2022-10-11T05:04:39.306Z,72.74
2022-10-11T05:05:17.495Z,72.64
2022-10-11T05:05:51.131Z,72.76
2022-10-11T05:06:24.202Z,72.69
2022-10-11T05:06:57.321Z,72.71
2022-10-11T05:07:30.518Z,72.74
2022-10-11T05:08:03.597Z,72.72
2022-10-11T05:08:36.830Z,72.74
2022-10-11T05:09:10.082Z,72.85
2022-10-11T05:09:43.437Z,72.70
2022-10-11T05:10:16.716Z,72.61
2022-10-11T05:11:01.291Z,72.88
2022-10-11T05:11:34.563Z,72.89
2022-10-11T05:12:07.808Z,72.73
2022-10-11T05:12:40.946Z,72.84
2022-10-11T05:13:14.045Z,72.85
2022-10-11T05:13:47.682Z,72.74
2022-10-11T05:14:20.929Z,72.71
2022-10-11T05:14:54.217Z,72.84
2022-10-11T05:15:27.450Z,72.97
2022-10-11T05:16:01.044Z,72.95
2022-10-11T05:16:34.320Z,72.98
2022-10-11T05:17:07.524Z,73.07
2022-10-11T05:17:40.767Z,73.08
2022-10-11T05:18:13.977Z,72.88
2022-10-11T05:18:47.182Z,73.11
2022-10-11T05:19:20.412Z,73.14
2022-10-11T05:19:53.509Z,73.20
2022-10-11T05:20:26.938Z,73.07
2022-10-11T05:21:19.632Z,73.13
2022-10-11T05:21:52.756Z,73.04
2022-10-11T05:22:25.966Z,73.11
2022-10-11T05:22:59.037Z,73.16
2022-10-11T05:23:34.117Z,73.20
2022-10-11T05:24:07.724Z,73.23
2022-10-11T05:24:40.770Z,73.28
2022-10-11T05:25:13.896Z,73.34
2022-10-11T05:25:47.247Z,73.25
2022-10-11T05:26:21.208Z,73.23
2022-10-11T05:26:54.339Z,73.18
2022-10-11T05:27:27.482Z,73.39
2022-10-11T05:28:01.639Z,73.32
2022-10-11T05:28:34.933Z,73.23
2022-10-11T05:29:08.110Z,73.32
2022-10-11T05:29:41.265Z,73.54
2022-10-11T05:30:14.423Z,73.30
2022-10-11T05:30:47.538Z,73.32
2022-10-11T05:31:21.352Z,73.34
2022-10-11T05:31:54.627Z,73.29
2022-10-11T05:32:28.218Z,73.47
2022-10-11T05:33:01.405Z,73.34
2022-10-11T05:33:34.887Z,73.35
2022-10-11T05:34:08.191Z,73.47
2022-10-11T05:34:41.395Z,73.49
2022-10-11T05:35:14.873Z,73.29
2022-10-11T05:35:48.045Z,73.34
2022-10-11T05:36:21.592Z,73.48
2022-10-11T05:36:56.614Z,73.51
2022-10-11T05:37:29.691Z,73.46
2022-10-11T05:38:02.840Z,73.49
2022-10-11T05:38:37.008Z,73.65
2022-10-11T05:39:10.168Z,73.73
2022-10-11T05:39:43.622Z,73.70
2022-10-11T05:40:17.008Z,73.55
2022-10-11T05:40:50.311Z,73.54
2022-10-11T05:41:23.430Z,73.49
2022-10-11T05:41:56.588Z,73.63
2022-10-11T05:42:29.639Z,73.68
2022-10-11T05:43:02.878Z,73.57
2022-10-11T05:43:36.192Z,73.71
2022-10-11T05:44:09.435Z,73.65
2022-10-11T05:44:42.759Z,73.58
2022-10-11T05:45:15.958Z,73.73
2022-10-11T05:45:49.976Z,73.75
2022-10-11T05:46:23.303Z,73.71
2022-10-11T05:46:56.511Z,73.68
2022-10-11T05:47:29.604Z,73.74
2022-10-11T05:48:02.760Z,73.94
2022-10-11T05:48:35.959Z,73.80
2022-10-11T05:49:09.016Z,73.85
2022-10-11T05:49:42.723Z,73.95
2022-10-11T05:50:17.195Z,73.84
2022-10-11T05:50:51.900Z,73.86
2022-10-11T05:51:24.912Z,74.07
2022-10-11T05:51:58.367Z,73.94
2022-10-11T05:52:32.110Z,73.87
2022-10-11T05:53:06.062Z,74.09
2022-10-11T05:53:39.722Z,74.04
2022-10-11T05:54:12.847Z,73.91
2022-10-11T05:54:46.112Z,74.11
2022-10-11T05:55:19.588Z,73.95
2022-10-11T05:55:52.916Z,74.07
2022-10-11T05:56:26.843Z,74.15
2022-10-11T05:57:00.183Z,74.19
2022-10-11T05:57:33.550Z,74.15
2022-10-11T05:58:08.026Z,74.19
2022-10-11T05:58:41.206Z,74.13
2022-10-11T05:59:14.796Z,74.18
2022-10-11T05:59:47.868Z,74.12
2022-10-11T06:00:21.246Z,74.17
2022-10-11T06:00:55.106Z,74.23
2022-10-11T06:01:28.844Z,74.29
2022-10-11T06:02:02.140Z,74.25
2022-10-11T06:02:35.258Z,74.37
2022-10-11T06:03:11.284Z,74.31
2022-10-11T06:03:44.700Z,74.38
2022-10-11T06:04:19.218Z,74.38
2022-10-11T06:04:52.376Z,74.44
2022-10-11T06:05:25.840Z,74.30
2022-10-11T06:06:02.852Z,74.36
2022-10-11T06:06:36.155Z,74.41
2022-10-11T06:07:09.351Z,74.38
2022-10-11T06:07:43.448Z,74.37
2022-10-11T06:08:16.933Z,74.45
2022-10-11T06:08:50.281Z,74.42
2022-10-11T06:09:23.464Z,74.40
2022-10-11T06:09:56.741Z,74.51
2022-10-11T06:10:29.973Z,74.49
2022-10-11T06:11:17.272Z,74.47
2022-10-11T06:11:51.043Z,74.52
2022-10-11T06:12:24.291Z,74.63
2022-10-11T06:12:57.706Z,74.64
2022-10-11T06:13:30.782Z,74.52
2022-10-11T06:14:03.963Z,74.64
2022-10-11T06:14:37.338Z,74.67
2022-10-11T06:15:11.665Z,74.71
2022-10-11T06:15:44.940Z,74.73
2022-10-11T06:16:18.093Z,74.87
2022-10-11T06:16:51.230Z,74.82
2022-10-11T06:17:24.549Z,74.84
2022-10-11T06:17:59.562Z,74.88
2022-10-11T06:18:33.207Z,74.80
2022-10-11T06:19:06.344Z,74.91
2022-10-11T06:19:39.462Z,74.74
2022-10-11T06:20:13.010Z,74.96
2022-10-11T06:20:46.233Z,74.90
2022-10-11T06:21:20.010Z,74.88
2022-10-11T06:21:53.519Z,74.87
2022-10-11T06:22:26.996Z,74.97
2022-10-11T06:23:00.694Z,74.95
2022-10-11T06:23:33.902Z,75.01
2022-10-11T06:24:07.362Z,75.12
2022-10-11T06:24:40.471Z,75.18
2022-10-11T06:25:13.775Z,75.12
2022-10-11T06:25:58.159Z,75.21
2022-10-11T06:26:31.417Z,75.19
2022-10-11T06:27:04.588Z,75.23
2022-10-11T06:27:38.151Z,75.23
2022-10-11T06:28:11.499Z,75.25
2022-10-11T06:28:45.111Z,75.14
2022-10-11T06:29:18.469Z,75.15
2022-10-11T06:29:51.605Z,75.18
2022-10-11T06:30:24.850Z,75.23
2022-10-11T06:30:58.529Z,75.16
2022-10-11T06:31:32.383Z,75.29
2022-10-11T06:32:06.125Z,75.37
2022-10-11T06:32:39.404Z,75.21
2022-10-11T06:33:12.699Z,75.40
2022-10-11T06:33:45.878Z,75.30
2022-10-11T06:34:19.038Z,75.45
2022-10-11T06:34:52.206Z,75.43
2022-10-11T06:35:26.171Z,75.41
2022-10-11T06:36:01.829Z,75.48
2022-10-11T06:36:35.304Z,75.51
2022-10-11T06:37:08.503Z,75.50
2022-10-11T06:37:41.632Z,75.51
2022-10-11T06:38:14.674Z,75.54
2022-10-11T06:38:47.788Z,75.50
2022-10-11T06:39:20.947Z,75.54
2022-10-11T06:39:54.102Z,75.54
2022-10-11T06:40:27.319Z,75.55
2022-10-11T06:41:17.544Z,75.71
2022-10-11T06:41:50.938Z,75.66
2022-10-11T06:42:24.258Z,75.54
2022-10-11T06:42:57.424Z,75.61
2022-10-11T06:43:30.499Z,75.59
2022-10-11T06:44:03.708Z,75.64
2022-10-11T06:44:37.656Z,75.70
2022-10-11T06:45:11.057Z,75.74
2022-10-11T06:45:44.090Z,75.70
2022-10-11T06:46:21.961Z,75.76
2022-10-11T06:46:54.961Z,75.73
2022-10-11T06:47:28.039Z,75.91
2022-10-11T06:48:02.204Z,75.92
2022-10-11T06:48:39.213Z,75.98
2022-10-11T06:49:12.503Z,75.92
2022-10-11T06:49:45.769Z,76.04
2022-10-11T06:50:34.805Z,75.96
2022-10-11T06:51:13.970Z,76.06
2022-10-11T06:51:47.168Z,76.09
2022-10-11T06:52:20.282Z,76.03
2022-10-11T06:52:53.465Z,76.26
2022-10-11T06:53:27.374Z,76.23
2022-10-11T06:54:02.044Z,76.11
2022-10-11T06:54:35.117Z,76.15
2022-10-11T06:55:08.969Z,76.20
2022-10-11T06:55:41.926Z,76.24
2022-10-11T06:56:15.336Z,76.24
2022-10-11T06:56:48.455Z,76.30
2022-10-11T06:57:21.701Z,76.42
2022-10-11T06:57:54.929Z,76.46
2022-10-11T06:58:28.827Z,76.49
2022-10-11T06:59:02.300Z,76.50
2022-10-11T06:59:35.312Z,76.63
2022-10-11T07:00:12.476Z,76.62
2022-10-11T07:00:46.110Z,76.51
2022-10-11T07:01:21.804Z,76.56
2022-10-11T07:01:55.098Z,76.55
2022-10-11T07:02:28.200Z,76.67
2022-10-11T07:03:01.339Z,76.47
2022-10-11T07:03:35.200Z,76.55
2022-10-11T07:04:08.631Z,76.51
2022-10-11T07:04:41.828Z,76.64
2022-10-11T07:05:14.964Z,76.55
2022-10-11T07:05:48.081Z,76.67
2022-10-11T07:06:26.692Z,76.59
2022-10-11T07:06:59.882Z,76.71
2022-10-11T07:07:33.327Z,76.55
2022-10-11T07:08:06.843Z,76.68
2022-10-11T07:08:41.058Z,76.85
2022-10-11T07:09:14.223Z,76.83
2022-10-11T07:09:47.704Z,76.83
2022-10-11T07:10:20.954Z,76.83
2022-10-11T07:10:54.317Z,76.98
2022-10-11T07:11:29.198Z,76.93
2022-10-11T07:12:02.654Z,76.90
2022-10-11T07:12:35.679Z,76.83
2022-10-11T07:13:13.514Z,76.78
2022-10-11T07:13:54.835Z,76.89
2022-10-11T07:14:27.862Z,76.95
2022-10-11T07:15:01.088Z,76.82
2022-10-11T07:15:38.403Z,77.00
2022-10-11T07:16:13.160Z,76.87
2022-10-11T07:16:46.265Z,76.89
2022-10-11T07:17:19.693Z,76.87
2022-10-11T07:17:52.793Z,76.99
2022-10-11T07:18:25.792Z,76.98
2022-10-11T07:19:01.226Z,77.07
2022-10-11T07:19:34.516Z,77.27
2022-10-11T07:20:08.280Z,77.06
2022-10-11T07:20:41.436Z,77.13
2022-10-11T07:21:16.493Z,77.13
2022-10-11T07:21:49.631Z,77.26
2022-10-11T07:22:22.963Z,77.24
2022-10-11T07:22:55.978Z,77.12
2022-10-11T07:23:29.077Z,77.11
2022-10-11T07:24:02.712Z,77.08
2022-10-11T07:24:35.916Z,77.08
2022-10-11T07:25:09.308Z,77.02
2022-10-11T07:25:42.511Z,77.02
2022-10-11T07:26:16.325Z,77.20
2022-10-11T07:26:50.310Z,77.27
2022-10-11T07:27:23.983Z,77.24
2022-10-11T07:27:57.105Z,77.28
2022-10-11T07:28:31.131Z,77.22
2022-10-11T07:29:04.916Z,77.29
2022-10-11T07:29:38.168Z,77.32
2022-10-11T07:30:11.672Z,77.38
2022-10-11T07:30:45.056Z,77.47
2022-10-11T07:31:21.241Z,77.36
2022-10-11T07:31:54.406Z,77.30
2022-10-11T07:32:27.605Z,77.37
2022-10-11T07:33:00.631Z,77.35
2022-10-11T07:33:33.982Z,77.46
2022-10-11T07:34:07.282Z,77.48
2022-10-11T07:34:40.326Z,77.44
2022-10-11T07:35:13.602Z,77.43
2022-10-11T07:35:48.528Z,77.54
2022-10-11T07:36:23.511Z,77.37
2022-10-11T07:36:56.462Z,77.35
2022-10-11T07:37:29.548Z,77.44
2022-10-11T07:38:04.115Z,77.37
2022-10-11T07:38:42.962Z,77.48
2022-10-11T07:39:16.173Z,77.52
2022-10-11T07:39:49.933Z,77.52
2022-10-11T07:40:23.092Z,77.55